Hope, Canada
Current Conditions -  °F | °C
As of 6:00 AM on Wednesday 28 Jan 2015 (Local Time) from CYHE Reporting Station
Broken Clouds Broken Clouds  
Wind Chill: 43°   Ceiling: 3900
Heat Index: 43°   Visibility: 9mi
Dew Point: 39°   Wind: 2mph
Humidity: 87%   Direction: NA
Pressure: 30.37"   Gusts: NA
Location:  49.36°N, 121.5°W
Report Text: CYHE 281400Z AUTO VRB02KT 9SM FEW031 BKN039 06/04 A3037 RMK SLP285
Loading
Personal Weather Stations






























Interactive Weather Map New forecast layout! Learn more

10-Day Weather Forecast

Advertisements
Track Severe Weather on mobile